Airfield :







YOU CAN JOIN US ON...

 
LOGIN :

Register | Disclaimer

   EN    FR    IT 

 









Legend :    VFR   Marginal VFR   IFR   Intensive IFR   Very Intensive IFR
Visi :
Ceiling :
>= 8 km
>= 3000ft
5 to 8 km
1000 to 3000 ft
1500m to 5 km
500 to 1000 ft
800 to 1500m
200 to 500 ft
< 800m
< 200 ft
Symbols :   Thunderstorms  Fog  Heavy snow  Heavy precipitations  Wind > 20 kt






- Airport Elevation : 1074 ft


KHIE - Mount Washington Regional

CURRENT METAR :
  • 291832Z AUTO 00000KT 8SM -RA SCT018 OVC029 06/02 A2982 RMK AO2 P0002 T00560022

EXPIRED METARs :
  • 291752Z AUTO 00000KT 10SM -RA BKN041 OVC050 06/04 A2981 RMK AO2 SLP106 P0000 60000 I6000 T00560039 10056 21011 58022
  • 291652Z AUTO 00000KT 10SM -RA OVC055 06/03 A2984 RMK AO2 RAB49 SLP113 P0000 T00560033
  • 291552Z AUTO 00000KT 10SM FEW041 OVC090 05/03 A2987 RMK AO2 SLP125 T00500028

TAF KHIE
Valid from the 29 at 18:00 until the 30 at 18:00 UTC


291721Z 2918/3018 00000KT P6SM -SHRA OVC060
FM292000 04004KT 6SM -RA BKN020 OVC040
FM300200 02004KT 3SM -SN BR OVC015
FM300600 03006KT P6SM BKN045
KZBW FIR / North America



MET'MAP, your aeronautical weather chart ! - Copyright ORBIFLY December 2007 - Disclaimer

ORBIFLY MET'MAP TEAM :

Programming & Development : Alexandra Zaïnal
Concept & original design : Baudouin d'Aumeries
Assistance for programming : Marc-Olivier Méhu
Technical & hardware support : Manuel Goepfert

Contact : metmap@orbifly.com




SOURCES & CREDITS :

   NOAA